Time;durP1;ratioP1;P1;durP2;ratioP2;P2;SDS_P1;SDS_P2;PMS_P1;PMS_P2;Temp;Humidity;BMP_temperature;BMP_pressure;BME280_temperature;BME280_humidity;BME280_pressure;Samples;Min_cycle;Max_cycle;Signal;HPM_P1;HPM_P2
2023/07/10 00:05:21;;;;;;;;;;;;;;;25.22;42.76;100657.34;41769112;28;20856;-77
2023/07/10 00:25:23;;;;;;;;;;;;;;;24.99;43.33;100662.06;41803531;28;20004;-79
2023/07/10 00:45:23;;;;;;;;;;;;;;;25.01;43.33;100650.34;41793265;28;19939;-77
2023/07/10 01:05:25;;;;;;;;;;;;;;;24.71;44.23;100653.91;41800989;28;19934;-77
2023/07/10 01:25:26;;;;;;;;;;;;;;;24.40;45.45;100664.50;41751700;28;20362;-77
2023/07/10 01:45:27;;;;;;;;;;;;;;;24.34;45.53;100657.94;41773449;28;20168;-77
2023/07/10 02:05:33;;;;;;;;;;;;;;;24.56;45.22;100666.63;41764338;28;19924;-79
2023/07/10 02:25:34;;;;;;;;;;;;;;;24.48;45.12;100654.09;41783848;28;19929;-77
2023/07/10 02:45:34;;;;;;;;;;;;;;;24.37;44.99;100655.00;41781014;28;19924;-80
2023/07/10 03:05:35;;;;;;;;;;;;;;;24.40;44.79;100654.75;41762147;28;19937;-78
2023/07/10 03:25:35;;;;;;;;;;;;;;;24.35;45.70;100658.78;41821993;28;19932;-80
2023/07/10 03:45:35;;;;;;;;;;;;;;;24.28;46.28;100643.44;41783762;28;19909;-81
2023/07/10 04:05:35;;;;;;;;;;;;;;;24.30;46.74;100645.94;41809283;28;19928;-81
2023/07/10 04:25:36;;;;;;;;;;;;;;;24.24;47.22;100655.25;41786279;28;19924;-83
2023/07/10 04:45:37;;;;;;;;;;;;;;;24.32;47.61;100654.59;41845451;28;20312;-78
2023/07/10 05:05:38;;;;;;;;;;;;;;;23.78;49.13;100653.88;41813233;28;19924;-80
2023/07/10 05:25:38;;;;;;;;;;;;;;;24.13;47.75;100665.91;41692929;28;19932;-80
2023/07/10 05:45:38;;;;;;;;;;;;;;;24.35;46.79;100674.66;41676798;28;19957;-83
2023/07/10 06:05:39;;;;;;;;;;;;;;;24.56;47.06;100664.84;41645595;28;19934;-79
2023/07/10 06:25:43;;;;;;;;;;;;;;;24.79;46.58;100648.75;41643911;28;19980;-79
2023/07/10 06:45:44;;;;;;;;;;;;;;;25.03;46.04;100645.72;41644011;28;19929;-82
2023/07/10 07:05:45;;;;;;;;;;;;;;;25.26;46.57;100643.63;41674309;28;19925;-83
2023/07/10 07:25:45;;;;;;;;;;;;;;;25.49;46.43;100621.34;41653892;28;19932;-82
2023/07/10 07:45:53;;;;;;;;;;;;;;;25.70;46.75;100610.56;41667169;28;20035;-82
2023/07/10 08:05:54;;;;;;;;;;;;;;;25.94;46.83;100609.22;41651107;28;20056;-78
2023/07/10 08:25:56;;;;;;;;;;;;;;;26.15;46.04;100595.78;41699248;28;20428;-79
2023/07/10 08:46:01;;;;;;;;;;;;;;;26.37;43.77;100575.97;41764806;28;19990;-79
2023/07/10 09:06:03;;;;;;;;;;;;;;;26.52;42.96;100563.00;41817345;28;19925;-77
2023/07/10 09:26:11;;;;;;;;;;;;;;;26.73;42.01;100562.72;41840809;28;19925;-78
2023/07/10 09:46:11;;;;;;;;;;;;;;;26.94;42.31;100525.25;41877060;28;19964;-76
2023/07/10 10:06:23;;;;;;;;;;;;;;;27.11;42.83;100512.06;41858044;28;19933;-77
2023/07/10 10:26:30;;;;;;;;;;;;;;;27.32;41.73;100498.44;41820925;28;19925;-77
2023/07/10 10:46:49;;;;;;;;;;;;;;;27.37;41.64;100480.19;41782938;28;19932;-80
2023/07/10 11:06:53;;;;;;;;;;;;;;;27.51;40.88;100469.97;41837697;28;19928;-78
2023/07/10 11:26:58;;;;;;;;;;;;;;;27.68;41.27;100446.94;41834344;28;19925;-79
2023/07/10 11:47:05;;;;;;;;;;;;;;;27.77;42.09;100444.16;41844914;28;19929;-80
2023/07/10 12:07:10;;;;;;;;;;;;;;;28.03;39.43;100407.78;41857709;28;20050;-78
2023/07/10 12:27:11;;;;;;;;;;;;;;;28.09;38.80;100394.69;41831318;28;19925;-80
2023/07/10 12:47:13;;;;;;;;;;;;;;;28.16;38.26;100402.84;41829738;28;20269;-80
2023/07/10 13:07:16;;;;;;;;;;;;;;;28.21;38.14;100383.69;41874524;28;19978;-81
2023/07/10 13:27:18;;;;;;;;;;;;;;;28.22;38.35;100377.38;41870023;28;19928;-81
2023/07/10 13:47:20;;;;;;;;;;;;;;;28.30;38.01;100379.22;41829214;28;19928;-79
2023/07/10 14:07:22;;;;;;;;;;;;;;;28.40;37.41;100364.72;41844162;28;19936;-77
2023/07/10 14:27:24;;;;;;;;;;;;;;;28.44;37.52;100349.25;41858342;28;20296;-78
2023/07/10 14:47:27;;;;;;;;;;;;;;;28.41;37.50;100338.94;41873389;28;19951;-76
2023/07/10 15:07:28;;;;;;;;;;;;;;;28.46;37.57;100338.44;41847700;28;20016;-77
2023/07/10 15:27:28;;;;;;;;;;;;;;;28.40;37.39;100342.59;41875164;28;20011;-80
2023/07/10 15:47:28;;;;;;;;;;;;;;;28.37;40.53;100351.75;41835172;28;19928;-79
2023/07/10 16:07:29;;;;;;;;;;;;;;;28.39;39.97;100336.44;41835518;28;20387;-77
2023/07/10 16:27:29;;;;;;;;;;;;;;;28.59;39.65;100296.94;41792359;28;19971;-86
2023/07/10 16:47:29;;;;;;;;;;;;;;;28.70;39.13;100289.63;41821575;28;19978;-77
2023/07/10 17:07:30;;;;;;;;;;;;;;;28.75;38.77;100321.94;41777020;28;20572;-78
2023/07/10 17:27:30;;;;;;;;;;;;;;;28.77;38.35;100341.22;41819706;28;20024;-76
2023/07/10 17:47:30;;;;;;;;;;;;;;;28.78;38.33;100414.84;41811022;28;20019;-77
2023/07/10 18:07:30;;;;;;;;;;;;;;;28.73;36.14;100415.38;41819337;28;19928;-76
2023/07/10 18:27:31;;;;;;;;;;;;;;;28.35;37.54;100355.59;41801137;28;19925;-82
2023/07/10 18:47:31;;;;;;;;;;;;;;;28.40;40.47;100430.47;41795950;28;19936;-83
2023/07/10 19:07:32;;;;;;;;;;;;;;;28.30;40.58;100430.66;41792390;28;19932;-79
2023/07/10 19:27:33;;;;;;;;;;;;;;;28.21;40.26;100484.88;41795277;28;20037;-82
2023/07/10 19:47:33;;;;;;;;;;;;;;;28.17;40.14;100497.66;41810040;28;19986;-86
2023/07/10 20:07:33;;;;;;;;;;;;;;;27.98;39.14;100458.00;41776102;28;19936;-80
2023/07/10 20:27:35;;;;;;;;;;;;;;;27.75;39.30;100427.50;41761841;28;20284;-83
2023/07/10 20:47:35;;;;;;;;;;;;;;;27.57;40.30;100429.44;41829812;28;19997;-82
2023/07/10 21:07:35;;;;;;;;;;;;;;;27.38;41.29;100418.03;41783377;28;19925;-82
2023/07/10 21:27:36;;;;;;;;;;;;;;;27.08;42.90;100379.50;41800681;28;20031;-81
2023/07/10 21:47:36;;;;;;;;;;;;;;;26.95;43.63;100358.66;41794838;28;19924;-81
2023/07/10 22:07:37;;;;;;;;;;;;;;;26.84;44.64;100376.56;41757253;28;19931;-83
2023/07/10 22:27:37;;;;;;;;;;;;;;;26.71;45.02;100396.50;41799555;28;19920;-78
2023/07/10 22:47:37;;;;;;;;;;;;;;;26.59;45.10;100399.44;41805379;28;20399;-78
2023/07/10 23:07:39;;;;;;;;;;;;;;;26.34;46.85;100363.88;41818138;28;20299;-80
2023/07/10 23:27:39;;;;;;;;;;;;;;;26.17;48.08;100360.25;41787266;28;20019;-80
2023/07/10 23:47:42;;;;;;;;;;;;;;;26.02;48.72;100362.59;41770337;28;22074;-79
